createdAt,value
2018-09-20T00:02:09.824Z,4.60
2018-09-20T00:04:44.276Z,5.53
2018-09-20T00:07:17.436Z,5.23
2018-09-20T00:09:52.335Z,4.77
2018-09-20T00:12:24.858Z,5.40
2018-09-20T00:15:00.540Z,5.67
2018-09-20T00:17:35.536Z,5.60
2018-09-20T00:20:09.768Z,6.17
2018-09-20T00:22:44.429Z,5.73
2018-09-20T00:25:17.848Z,5.67
2018-09-20T00:27:50.565Z,5.40
2018-09-20T00:30:23.317Z,5.60
2018-09-20T00:32:56.886Z,5.30
2018-09-20T00:35:31.024Z,5.10
2018-09-20T00:38:04.156Z,4.83
2018-09-20T00:40:36.837Z,4.87
2018-09-20T00:43:11.047Z,5.10
2018-09-20T00:45:44.158Z,5.43
2018-09-20T00:48:16.645Z,5.63
2018-09-20T00:50:49.251Z,5.07
2018-09-20T00:53:23.024Z,5.17
2018-09-20T00:55:55.717Z,5.07
2018-09-20T00:58:29.814Z,5.60
2018-09-20T01:01:02.993Z,4.57
2018-09-20T01:03:35.461Z,5.23
2018-09-20T01:06:09.396Z,5.20
2018-09-20T01:08:42.174Z,4.93
2018-09-20T01:11:14.883Z,4.40
2018-09-20T01:13:48.184Z,5.13
2018-09-20T01:16:43.352Z,4.80
2018-09-20T01:19:15.716Z,5.27
2018-09-20T01:21:49.012Z,5.35
2018-09-20T01:24:24.640Z,5.30
2018-09-20T01:26:57.824Z,5.30
2018-09-20T01:29:30.165Z,5.53
2018-09-20T01:32:03.963Z,5.50
2018-09-20T01:34:36.320Z,5.53
2018-09-20T01:37:08.792Z,6.50
2018-09-20T01:39:41.421Z,5.57
2018-09-20T01:42:14.148Z,6.03
2018-09-20T01:44:46.987Z,5.97
2018-09-20T01:47:21.814Z,6.10
2018-09-20T01:53:06.540Z,5.53
2018-09-20T01:55:39.020Z,5.63
2018-09-20T01:58:11.592Z,6.03
2018-09-20T02:00:44.416Z,5.43
2018-09-20T02:03:18.425Z,5.80
2018-09-20T02:05:50.993Z,5.80
2018-09-20T02:08:25.259Z,6.03
2018-09-20T02:10:57.801Z,5.40
2018-09-20T02:13:31.182Z,5.67
2018-09-20T02:16:04.219Z,5.60
2018-09-20T02:18:37.161Z,5.83
2018-09-20T02:21:09.697Z,5.90
2018-09-20T02:23:42.732Z,5.50
2018-09-20T02:26:15.509Z,5.20
2018-09-20T02:28:49.024Z,5.20
2018-09-20T02:31:23.613Z,5.77
2018-09-20T02:33:56.278Z,5.77
2018-09-20T02:36:28.932Z,6.10
2018-09-20T02:39:02.648Z,6.00
2018-09-20T02:41:36.551Z,6.12
2018-09-20T02:44:09.060Z,7.17
2018-09-20T02:46:41.806Z,6.33
2018-09-20T02:49:14.413Z,5.80
2018-09-20T02:51:47.052Z,6.83
2018-09-20T02:54:23.008Z,6.70
2018-09-20T02:56:55.660Z,6.87
2018-09-20T02:59:29.176Z,6.40
2018-09-20T03:02:03.823Z,6.67
2018-09-20T03:04:36.913Z,6.33
2018-09-20T03:07:09.658Z,6.28
2018-09-20T03:09:42.613Z,5.93
2018-09-20T03:12:15.221Z,6.37
2018-09-20T03:14:47.713Z,6.47
2018-09-20T03:17:20.808Z,6.17
2018-09-20T03:19:53.884Z,6.33
2018-09-20T03:22:26.570Z,6.35
2018-09-20T03:24:59.581Z,5.90
2018-09-20T03:27:32.129Z,6.07
2018-09-20T03:30:06.238Z,6.80
2018-09-20T03:32:40.144Z,6.10
2018-09-20T03:35:13.322Z,6.63
2018-09-20T03:37:45.888Z,6.50
2018-09-20T03:40:20.448Z,7.37
2018-09-20T03:42:56.930Z,6.40
2018-09-20T03:45:32.466Z,6.80
2018-09-20T03:48:06.142Z,7.27
2018-09-20T03:50:38.911Z,6.73
2018-09-20T03:53:11.644Z,7.27
2018-09-20T03:55:44.388Z,6.20
2018-09-20T03:58:16.968Z,7.43
2018-09-20T04:00:54.008Z,7.17
2018-09-20T04:03:27.617Z,7.17
2018-09-20T04:06:00.018Z,6.43
2018-09-20T04:08:35.739Z,7.03
2018-09-20T04:11:08.440Z,6.43
2018-09-20T04:13:42.699Z,7.00
2018-09-20T04:16:16.336Z,6.73
2018-09-20T04:18:49.059Z,6.37
2018-09-20T04:21:33.289Z,7.00
2018-09-20T04:24:06.933Z,7.23
2018-09-20T04:26:40.100Z,7.77
2018-09-20T04:29:13.665Z,7.63
2018-09-20T04:31:46.953Z,6.93
2018-09-20T04:34:21.448Z,7.78
2018-09-20T04:36:55.336Z,7.22
2018-09-20T04:39:28.814Z,7.17
2018-09-20T04:42:01.517Z,7.43
2018-09-20T04:44:34.084Z,7.50
2018-09-20T04:47:08.330Z,7.20
2018-09-20T04:49:40.865Z,7.80
2018-09-20T04:52:14.409Z,7.27
2018-09-20T04:54:47.444Z,7.37
2018-09-20T04:57:20.006Z,8.13
2018-09-20T04:59:55.614Z,7.23
2018-09-20T05:02:28.497Z,7.83
2018-09-20T05:05:01.257Z,6.90
2018-09-20T05:07:34.328Z,6.93
2018-09-20T05:10:10.313Z,7.90
2018-09-20T05:12:42.889Z,7.65
2018-09-20T05:15:16.636Z,6.60
2018-09-20T05:17:51.553Z,7.53
2018-09-20T05:20:25.096Z,8.00
2018-09-20T05:23:00.190Z,7.23
2018-09-20T05:25:33.967Z,7.07
2018-09-20T05:28:07.058Z,7.23
2018-09-20T05:30:42.644Z,7.50
2018-09-20T05:33:16.633Z,7.50
2018-09-20T05:35:49.786Z,7.30
2018-09-20T05:38:22.820Z,7.67
2018-09-20T05:40:57.285Z,7.47
2018-09-20T05:43:30.055Z,7.20
2018-09-20T05:46:03.145Z,7.43
2018-09-20T05:48:36.844Z,7.80
2018-09-20T05:51:09.605Z,7.17
2018-09-20T05:53:43.623Z,6.57
2018-09-20T05:56:16.092Z,7.77
2018-09-20T05:58:48.981Z,8.37
2018-09-20T06:01:21.676Z,7.80
2018-09-20T06:03:54.856Z,7.67
2018-09-20T06:06:27.720Z,7.43
2018-09-20T06:09:01.707Z,7.70
2018-09-20T06:11:34.936Z,6.43
2018-09-20T06:14:09.095Z,7.00
2018-09-20T06:16:43.403Z,7.30
2018-09-20T06:19:15.885Z,7.20
2018-09-20T06:21:48.512Z,8.40
2018-09-20T06:24:21.404Z,7.50
2018-09-20T06:26:55.024Z,7.30
2018-09-20T06:29:28.894Z,7.10
2018-09-20T06:32:01.552Z,6.80
2018-09-20T06:34:35.718Z,6.57
2018-09-20T06:37:08.264Z,7.43
2018-09-20T06:39:43.756Z,7.07
2018-09-20T06:42:16.265Z,6.83
2018-09-20T06:44:49.372Z,6.73
2018-09-20T06:47:24.155Z,6.80
2018-09-20T06:49:59.224Z,6.63
2018-09-20T06:52:31.780Z,6.57
2018-09-20T06:55:05.105Z,6.33
2018-09-20T06:57:37.781Z,6.40
2018-09-20T07:00:10.583Z,6.77
2018-09-20T07:02:44.242Z,7.17
2018-09-20T07:05:16.867Z,6.67
2018-09-20T07:07:50.317Z,7.53
2018-09-20T07:10:26.129Z,6.60
2018-09-20T07:12:59.700Z,6.90
2018-09-20T07:15:34.926Z,6.73
2018-09-20T07:18:07.696Z,6.53
2018-09-20T07:20:41.177Z,6.30
2018-09-20T07:23:15.823Z,6.80
2018-09-20T07:25:50.149Z,6.27
2018-09-20T07:28:24.224Z,6.80
2018-09-20T07:30:57.731Z,6.87
2018-09-20T07:33:34.272Z,5.97
2018-09-20T07:36:08.995Z,6.53
2018-09-20T07:38:42.068Z,5.53
2018-09-20T07:41:17.381Z,6.10
2018-09-20T07:43:51.611Z,6.27
2018-09-20T07:46:33.569Z,6.23
2018-09-20T07:49:07.635Z,6.13
2018-09-20T07:51:41.344Z,5.53
2018-09-20T07:54:14.010Z,5.93
2018-09-20T07:56:46.814Z,6.75
2018-09-20T07:59:19.885Z,5.90
2018-09-20T08:01:52.490Z,6.50
2018-09-20T08:04:25.715Z,6.93
2018-09-20T08:06:58.529Z,6.23
2018-09-20T08:09:31.245Z,6.57
2018-09-20T08:12:04.254Z,6.00
2018-09-20T08:14:41.821Z,5.77
2018-09-20T08:17:17.703Z,6.43
2018-09-20T08:19:53.764Z,6.13
2018-09-20T08:22:26.464Z,6.33
2018-09-20T08:25:01.695Z,5.20
2018-09-20T08:27:36.456Z,5.80
2018-09-20T08:30:09.093Z,6.20
2018-09-20T08:32:43.685Z,6.30
2018-09-20T08:35:17.298Z,6.00
2018-09-20T08:37:51.049Z,6.45
2018-09-20T08:40:26.688Z,5.70
2018-09-20T08:43:01.308Z,5.50
2018-09-20T08:45:36.701Z,6.03
2018-09-20T08:48:09.937Z,6.47
2018-09-20T08:50:42.388Z,5.80
2018-09-20T08:53:15.056Z,5.40
2018-09-20T08:55:54.824Z,5.70
2018-09-20T08:58:31.352Z,5.85
2018-09-20T09:01:04.520Z,5.07
2018-09-20T09:03:41.020Z,5.53
2018-09-20T09:06:14.348Z,4.97
2018-09-20T09:08:47.566Z,5.40
2018-09-20T09:11:22.993Z,4.90
2018-09-20T09:13:56.946Z,5.10
2018-09-20T09:16:30.322Z,4.67
2018-09-20T09:19:03.483Z,5.00
2018-09-20T09:21:37.480Z,5.55
2018-09-20T09:24:11.017Z,4.10
2018-09-20T09:26:44.677Z,4.20
2018-09-20T09:29:26.596Z,4.40
2018-09-20T09:31:59.152Z,4.40
2018-09-20T09:34:33.838Z,3.63
2018-09-20T09:37:06.164Z,4.43
2018-09-20T09:39:38.777Z,4.23
2018-09-20T09:42:15.900Z,3.70
2018-09-20T09:44:48.404Z,3.70
2018-09-20T09:47:20.972Z,3.77
2018-09-20T09:49:53.548Z,3.67
2018-09-20T09:52:26.201Z,3.80
2018-09-20T09:55:07.033Z,2.97
2018-09-20T09:57:40.983Z,3.70
2018-09-20T10:00:42.753Z,3.50
2018-09-20T10:03:18.462Z,3.90
2018-09-20T10:05:53.899Z,3.60
2018-09-20T10:08:26.897Z,3.33
2018-09-20T10:11:00.069Z,4.20
2018-09-20T10:13:33.115Z,3.47
2018-09-20T10:16:07.460Z,3.73
2018-09-20T10:18:43.933Z,3.40
2018-09-20T10:21:18.188Z,3.63
2018-09-20T10:23:54.145Z,4.00
2018-09-20T10:26:28.386Z,3.70
2018-09-20T10:29:02.858Z,3.90
2018-09-20T10:31:37.445Z,3.70
2018-09-20T10:34:10.174Z,3.63
2018-09-20T10:36:43.397Z,3.17
2018-09-20T10:39:16.383Z,3.60
2018-09-20T10:41:51.518Z,3.85
2018-09-20T10:44:32.901Z,3.53
2018-09-20T10:47:07.125Z,3.20
2018-09-20T10:49:41.224Z,3.47
2018-09-20T10:52:15.904Z,3.33
2018-09-20T10:54:54.606Z,3.60
2018-09-20T10:57:28.333Z,2.83
2018-09-20T11:00:03.956Z,3.47
2018-09-20T11:02:37.642Z,3.63
2018-09-20T11:05:11.443Z,3.13
2018-09-20T11:07:46.892Z,3.07
2018-09-20T11:10:19.801Z,2.90
2018-09-20T11:12:53.055Z,2.83
2018-09-20T11:15:30.066Z,2.77
2018-09-20T11:18:02.790Z,2.57
2018-09-20T11:20:35.350Z,3.03
2018-09-20T11:23:10.743Z,3.78
2018-09-20T11:25:43.930Z,2.73
2018-09-20T11:28:17.029Z,2.67
2018-09-20T11:30:50.041Z,3.40
2018-09-20T11:33:23.818Z,3.05
2018-09-20T11:35:57.129Z,2.97
2018-09-20T11:38:32.516Z,3.17
2018-09-20T11:41:05.037Z,2.90
2018-09-20T11:43:38.670Z,2.70
2018-09-20T11:46:12.777Z,2.40
2018-09-20T11:48:46.052Z,2.58
2018-09-20T11:51:19.996Z,2.90
2018-09-20T11:53:54.850Z,2.50
2018-09-20T11:56:27.772Z,2.70
2018-09-20T11:59:00.519Z,2.90
2018-09-20T12:01:34.732Z,2.57
2018-09-20T12:04:07.472Z,2.70
2018-09-20T12:06:40.217Z,2.90
2018-09-20T12:09:16.649Z,3.27
2018-09-20T12:11:49.510Z,3.00
2018-09-20T12:14:26.011Z,2.57
2018-09-20T12:16:58.821Z,3.10
2018-09-20T12:19:32.647Z,2.70
2018-09-20T12:22:12.092Z,2.77
2018-09-20T12:24:49.544Z,2.60
2018-09-20T12:27:24.535Z,2.40
2018-09-20T12:30:00.455Z,2.50
2018-09-20T12:32:35.590Z,2.77
2018-09-20T12:35:11.577Z,2.47
2018-09-20T12:37:55.763Z,2.63
2018-09-20T12:40:40.164Z,3.00
2018-09-20T12:43:18.046Z,2.80
2018-09-20T12:45:57.713Z,2.47
2018-09-20T12:48:38.008Z,2.40
2018-09-20T12:51:18.816Z,2.73
2018-09-20T12:54:01.120Z,2.60
2018-09-20T12:56:39.663Z,2.95
2018-09-20T12:59:25.576Z,2.60
2018-09-20T13:01:58.775Z,3.13
2018-09-20T13:04:32.508Z,2.90
2018-09-20T13:07:21.212Z,2.50
2018-09-20T13:10:16.470Z,2.53
2018-09-20T13:12:50.099Z,2.57
2018-09-20T13:15:24.533Z,2.67
2018-09-20T13:17:59.999Z,2.23
2018-09-20T13:20:36.754Z,2.67
2018-09-20T13:23:09.724Z,3.20
2018-09-20T13:25:43.609Z,2.33
2018-09-20T13:28:18.261Z,2.73
2018-09-20T13:30:54.528Z,2.80
2018-09-20T13:33:30.128Z,2.90
2018-09-20T13:36:02.821Z,2.70
2018-09-20T13:38:38.498Z,3.07
2018-09-20T13:41:16.754Z,2.77
2018-09-20T13:43:50.980Z,2.40
2018-09-20T13:46:24.143Z,2.57
2018-09-20T13:48:56.705Z,2.70
2018-09-20T13:51:32.753Z,2.80
2018-09-20T13:54:07.054Z,2.90
2018-09-20T13:56:40.742Z,2.60
2018-09-20T13:59:17.189Z,2.67
2018-09-20T14:01:51.058Z,2.83
2018-09-20T14:04:23.690Z,2.83
2018-09-20T14:06:57.089Z,2.70
2018-09-20T14:09:33.452Z,2.90
2018-09-20T14:12:08.974Z,2.60
2018-09-20T14:14:43.068Z,2.80
2018-09-20T14:17:16.784Z,2.83
2018-09-20T14:19:52.309Z,2.67
2018-09-20T14:22:28.814Z,2.70
2018-09-20T14:25:03.616Z,2.50
2018-09-20T14:27:36.281Z,2.97
2018-09-20T14:30:12.796Z,2.57
2018-09-20T14:32:48.651Z,3.03
2018-09-20T14:35:25.916Z,2.70
2018-09-20T14:38:09.591Z,2.87
2018-09-20T14:40:42.999Z,2.93
2018-09-20T14:43:20.360Z,2.50
2018-09-20T14:45:54.409Z,2.80
2018-09-20T14:48:30.173Z,2.90
2018-09-20T14:51:05.256Z,2.67
2018-09-20T14:53:41.362Z,2.47
2018-09-20T14:56:20.703Z,2.13
2018-09-20T14:58:55.217Z,2.80
2018-09-20T15:01:29.628Z,3.10
2018-09-20T15:04:02.178Z,2.20
2018-09-20T15:06:34.757Z,2.23
2018-09-20T15:09:12.628Z,2.27
2018-09-20T15:11:46.856Z,2.33
2018-09-20T15:14:23.475Z,2.33
2018-09-20T15:16:58.386Z,2.57
2018-09-20T15:19:34.240Z,2.60
2018-09-20T15:22:07.664Z,2.37
2018-09-20T15:24:44.821Z,2.10
2018-09-20T15:27:19.016Z,2.47
2018-09-20T15:30:00.282Z,2.23
2018-09-20T15:32:38.058Z,2.20
2018-09-20T15:35:18.622Z,2.60
2018-09-20T15:38:01.569Z,2.70
2018-09-20T15:40:40.136Z,2.10
2018-09-20T15:43:15.105Z,2.40
2018-09-20T15:45:51.251Z,2.00
2018-09-20T15:48:29.033Z,2.40
2018-09-20T15:51:01.714Z,2.40
2018-09-20T15:53:34.671Z,2.47
2018-09-20T15:56:09.167Z,2.20
2018-09-20T15:58:41.880Z,2.47
2018-09-20T16:01:17.309Z,2.37
2018-09-20T16:03:52.496Z,2.40
2018-09-20T16:06:27.984Z,2.30
2018-09-20T16:09:09.192Z,2.25
2018-09-20T16:11:43.682Z,2.03
2018-09-20T16:14:16.266Z,2.20
2018-09-20T16:16:49.833Z,2.33
2018-09-20T16:19:23.241Z,2.60
2018-09-20T16:21:56.555Z,2.40
2018-09-20T16:24:30.081Z,2.50
2018-09-20T16:27:03.414Z,2.30
2018-09-20T16:30:17.722Z,2.40
2018-09-20T16:33:45.476Z,2.67
2018-09-20T16:36:52.185Z,2.10
2018-09-20T16:39:28.632Z,2.20
2018-09-20T16:42:07.289Z,2.20
2018-09-20T16:44:42.162Z,2.43
2018-09-20T16:47:15.324Z,2.43
2018-09-20T16:49:48.945Z,2.30
2018-09-20T16:52:21.765Z,2.50
2018-09-20T16:54:56.254Z,2.67
2018-09-20T16:57:28.884Z,2.33
2018-09-20T17:00:09.944Z,2.50
2018-09-20T17:02:45.734Z,2.60
2018-09-20T17:05:21.791Z,2.30
2018-09-20T17:07:55.407Z,2.37
2018-09-20T17:10:29.639Z,2.27
2018-09-20T17:13:03.538Z,2.37
2018-09-20T17:15:38.016Z,2.42
2018-09-20T17:18:12.605Z,2.40
2018-09-20T17:20:45.716Z,2.10
2018-09-20T17:23:20.559Z,2.10
2018-09-20T17:25:58.546Z,2.63
2018-09-20T17:28:34.717Z,2.90
2018-09-20T17:31:10.229Z,2.43
2018-09-20T17:33:55.215Z,2.40
2018-09-20T17:36:53.949Z,2.58
2018-09-20T17:40:04.244Z,2.60
2018-09-20T17:42:50.797Z,2.30
2018-09-20T17:45:39.168Z,2.50
2018-09-20T17:48:35.912Z,3.07
2018-09-20T17:51:23.036Z,2.63
2018-09-20T17:54:10.112Z,2.80
2018-09-20T17:57:12.982Z,2.60
2018-09-20T18:00:21.222Z,2.67
2018-09-20T18:02:57.672Z,2.87
2018-09-20T18:05:32.732Z,2.30
2018-09-20T18:08:13.106Z,3.20
2018-09-20T18:10:49.293Z,2.80
2018-09-20T18:13:24.360Z,2.57
2018-09-20T18:15:57.821Z,2.70
2018-09-20T18:18:31.337Z,2.40
2018-09-20T18:21:09.847Z,2.70
2018-09-20T18:23:43.509Z,2.23
2018-09-20T18:26:16.191Z,2.87
2018-09-20T18:28:48.792Z,2.93
2018-09-20T18:31:22.349Z,3.10
2018-09-20T18:33:55.335Z,3.40
2018-09-20T18:36:27.975Z,3.00
2018-09-20T18:39:03.829Z,3.00
2018-09-20T18:41:44.451Z,2.93
2018-09-20T18:44:20.285Z,2.80
2018-09-20T18:46:53.859Z,3.23
2018-09-20T18:49:26.705Z,3.40
2018-09-20T18:52:00.033Z,3.13
2018-09-20T18:54:35.241Z,3.00
2018-09-20T18:57:09.645Z,2.63
2018-09-20T18:59:42.819Z,3.00
2018-09-20T19:02:17.317Z,2.75
2018-09-20T19:04:51.094Z,2.67
2018-09-20T19:07:23.604Z,2.60
2018-09-20T19:09:59.935Z,2.93
2018-09-20T19:12:34.573Z,2.63
2018-09-20T19:15:13.899Z,2.90
2018-09-20T19:17:48.987Z,3.00
2018-09-20T19:20:24.445Z,2.90
2018-09-20T19:23:00.033Z,2.80
2018-09-20T19:25:37.428Z,3.00
2018-09-20T19:28:11.669Z,3.70
2018-09-20T19:30:49.369Z,2.50
2018-09-20T19:33:26.612Z,2.80
2018-09-20T19:36:03.874Z,2.90
2018-09-20T19:38:39.889Z,2.97
2018-09-20T19:41:13.584Z,2.90
2018-09-20T19:43:47.932Z,2.73
2018-09-20T19:46:21.917Z,2.93
2018-09-20T19:48:55.948Z,3.10
2018-09-20T19:51:28.809Z,3.00
2018-09-20T19:54:06.982Z,3.03
2018-09-20T19:56:42.766Z,2.70
2018-09-20T19:59:19.341Z,2.80
2018-09-20T20:01:53.336Z,2.77
2018-09-20T20:04:29.747Z,2.90
2018-09-20T20:07:03.760Z,3.03
2018-09-20T20:09:36.891Z,2.80
2018-09-20T20:12:21.725Z,2.50
2018-09-20T20:14:55.861Z,3.00
2018-09-20T20:17:29.870Z,3.00
2018-09-20T20:20:04.824Z,3.00
2018-09-20T20:23:09.552Z,2.93
2018-09-20T20:25:46.410Z,2.97
2018-09-20T20:28:19.389Z,3.17
2018-09-20T20:30:53.820Z,2.73
2018-09-20T20:33:26.816Z,3.20
2018-09-20T20:36:06.795Z,3.27
2018-09-20T20:38:41.292Z,3.00
2018-09-20T20:41:16.072Z,3.00
2018-09-20T20:43:49.886Z,2.93
2018-09-20T20:46:24.601Z,3.23
2018-09-20T20:48:57.239Z,2.97
2018-09-20T20:51:31.263Z,2.60
2018-09-20T20:54:06.036Z,3.20
2018-09-20T20:56:39.032Z,3.20
2018-09-20T20:59:13.728Z,2.97
2018-09-20T21:01:46.302Z,2.93
2018-09-20T21:04:27.265Z,2.80
2018-09-20T21:07:02.975Z,2.53
2018-09-20T21:09:46.530Z,3.10
2018-09-20T21:12:25.985Z,2.70
2018-09-20T21:15:04.649Z,3.00
2018-09-20T21:17:41.393Z,2.93
2018-09-20T21:20:14.196Z,2.90
2018-09-20T21:22:47.479Z,3.00
2018-09-20T21:25:20.041Z,2.83
2018-09-20T21:27:54.331Z,3.23
2018-09-20T21:30:29.328Z,3.40
2018-09-20T21:33:03.442Z,3.30
2018-09-20T21:35:40.563Z,3.17
2018-09-20T21:38:15.606Z,3.20
2018-09-20T21:40:52.626Z,2.77
2018-09-20T21:43:25.293Z,3.03
2018-09-20T21:45:59.937Z,2.97
2018-09-20T21:48:33.933Z,2.93
2018-09-20T21:51:22.448Z,3.30
2018-09-20T21:53:55.620Z,3.13
2018-09-20T21:56:31.720Z,3.13
2018-09-20T21:59:06.994Z,3.20
2018-09-20T22:01:46.644Z,3.30
2018-09-20T22:04:19.154Z,3.40
2018-09-20T22:06:52.637Z,3.23
2018-09-20T22:09:25.491Z,3.13
2018-09-20T22:11:59.584Z,3.57
2018-09-20T22:14:35.464Z,3.40
2018-09-20T22:17:12.100Z,3.33
2018-09-20T22:19:46.089Z,3.13
2018-09-20T22:22:18.789Z,3.10
2018-09-20T22:24:54.854Z,3.00
2018-09-20T22:27:28.279Z,3.57
2018-09-20T22:30:02.957Z,2.93
2018-09-20T22:32:36.811Z,3.00
2018-09-20T22:35:11.541Z,3.50
2018-09-20T22:37:47.144Z,2.93
2018-09-20T22:40:19.932Z,3.40
2018-09-20T22:42:55.776Z,2.90
2018-09-20T22:45:29.642Z,2.80
2018-09-20T22:48:03.564Z,3.37
2018-09-20T22:50:37.504Z,3.50
2018-09-20T22:53:10.393Z,3.37
2018-09-20T22:55:43.529Z,3.40
2018-09-20T22:58:16.603Z,4.03
2018-09-20T23:00:52.133Z,3.42
2018-09-20T23:03:24.821Z,3.67
2018-09-20T23:05:57.760Z,3.73
2018-09-20T23:08:30.304Z,3.10
2018-09-20T23:11:04.020Z,3.60
2018-09-20T23:13:38.829Z,3.07
2018-09-20T23:16:13.732Z,3.10
2018-09-20T23:18:46.473Z,3.43
2018-09-20T23:21:21.740Z,3.17
2018-09-20T23:23:56.641Z,3.43
2018-09-20T23:26:30.041Z,3.20
2018-09-20T23:29:04.780Z,3.80
2018-09-20T23:31:37.432Z,3.00
2018-09-20T23:34:10.047Z,3.60
2018-09-20T23:36:42.887Z,3.27
2018-09-20T23:39:15.472Z,3.80
2018-09-20T23:41:47.984Z,3.33
2018-09-20T23:44:22.051Z,3.50
2018-09-20T23:46:54.581Z,3.30
2018-09-20T23:49:27.276Z,3.40
2018-09-20T23:52:00.305Z,3.17
2018-09-20T23:54:32.976Z,3.53
2018-09-20T23:57:06.296Z,3.57
2018-09-20T23:59:40.377Z,3.90
